sensor_id;sensor_type;location;lat;lon;timestamp;temperature;humidity
28837;DHT22;50669;50.982;11.022;2023-11-22T00:01:54;18.60;82.80
28837;DHT22;50669;50.982;11.022;2023-11-22T00:04:21;18.60;82.90
28837;DHT22;50669;50.982;11.022;2023-11-22T00:06:47;18.60;82.90
28837;DHT22;50669;50.982;11.022;2023-11-22T00:09:13;18.60;82.90
28837;DHT22;50669;50.982;11.022;2023-11-22T00:11:43;18.60;83.00
28837;DHT22;50669;50.982;11.022;2023-11-22T00:14:08;18.60;83.80
28837;DHT22;50669;50.982;11.022;2023-11-22T00:16:34;18.60;83.10
28837;DHT22;50669;50.982;11.022;2023-11-22T00:19:02;18.60;83.10
28837;DHT22;50669;50.982;11.022;2023-11-22T00:21:28;18.60;83.20
28837;DHT22;50669;50.982;11.022;2023-11-22T00:23:54;18.60;83.30
28837;DHT22;50669;50.982;11.022;2023-11-22T00:26:20;18.60;83.30
28837;DHT22;50669;50.982;11.022;2023-11-22T00:28:46;18.60;83.40
28837;DHT22;50669;50.982;11.022;2023-11-22T00:31:14;18.60;83.50
28837;DHT22;50669;50.982;11.022;2023-11-22T00:33:40;18.50;83.50
28837;DHT22;50669;50.982;11.022;2023-11-22T00:36:08;18.50;83.50
28837;DHT22;50669;50.982;11.022;2023-11-22T00:38:35;18.50;83.60
28837;DHT22;50669;50.982;11.022;2023-11-22T00:41:07;18.50;83.60
28837;DHT22;50669;50.982;11.022;2023-11-22T00:43:32;18.50;83.70
28837;DHT22;50669;50.982;11.022;2023-11-22T00:45:58;18.50;83.70
28837;DHT22;50669;50.982;11.022;2023-11-22T00:48:27;18.50;83.70
28837;DHT22;50669;50.982;11.022;2023-11-22T00:50:55;18.50;83.80
28837;DHT22;50669;50.982;11.022;2023-11-22T00:53:23;18.50;83.80
28837;DHT22;50669;50.982;11.022;2023-11-22T00:55:48;18.50;83.90
28837;DHT22;50669;50.982;11.022;2023-11-22T00:58:14;18.50;83.90
28837;DHT22;50669;50.982;11.022;2023-11-22T01:00:40;18.50;84.30
28837;DHT22;50669;50.982;11.022;2023-11-22T01:03:06;18.50;84.10
28837;DHT22;50669;50.982;11.022;2023-11-22T01:05:39;18.50;84.10
28837;DHT22;50669;50.982;11.022;2023-11-22T01:08:04;18.50;84.20
28837;DHT22;50669;50.982;11.022;2023-11-22T01:10:35;18.50;84.20
28837;DHT22;50669;50.982;11.022;2023-11-22T01:13:00;18.50;84.20
28837;DHT22;50669;50.982;11.022;2023-11-22T01:15:26;18.50;84.30
28837;DHT22;50669;50.982;11.022;2023-11-22T01:17:54;18.50;84.30
28837;DHT22;50669;50.982;11.022;2023-11-22T01:20:19;18.50;84.30
28837;DHT22;50669;50.982;11.022;2023-11-22T01:22:50;18.50;84.30
28837;DHT22;50669;50.982;11.022;2023-11-22T01:25:15;18.50;84.40
28837;DHT22;50669;50.982;11.022;2023-11-22T01:27:44;18.50;84.50
28837;DHT22;50669;50.982;11.022;2023-11-22T01:30:10;18.50;84.60
28837;DHT22;50669;50.982;11.022;2023-11-22T01:32:37;18.50;84.60
28837;DHT22;50669;50.982;11.022;2023-11-22T01:35:03;18.40;84.70
28837;DHT22;50669;50.982;11.022;2023-11-22T01:37:31;18.50;84.80
28837;DHT22;50669;50.982;11.022;2023-11-22T01:39:57;18.50;84.90
28837;DHT22;50669;50.982;11.022;2023-11-22T01:42:23;18.50;85.00
28837;DHT22;50669;50.982;11.022;2023-11-22T01:44:51;18.40;85.00
28837;DHT22;50669;50.982;11.022;2023-11-22T01:47:20;18.50;85.90
28837;DHT22;50669;50.982;11.022;2023-11-22T01:49:46;18.40;85.20
28837;DHT22;50669;50.982;11.022;2023-11-22T01:52:12;18.40;85.30
28837;DHT22;50669;50.982;11.022;2023-11-22T01:54:43;18.40;85.50
28837;DHT22;50669;50.982;11.022;2023-11-22T01:57:09;18.40;85.60
28837;DHT22;50669;50.982;11.022;2023-11-22T01:59:38;18.40;85.60
28837;DHT22;50669;50.982;11.022;2023-11-22T02:02:04;18.40;85.80
28837;DHT22;50669;50.982;11.022;2023-11-22T02:04:34;18.40;85.80
28837;DHT22;50669;50.982;11.022;2023-11-22T02:07:00;18.40;86.00
28837;DHT22;50669;50.982;11.022;2023-11-22T02:09:26;18.40;86.10
28837;DHT22;50669;50.982;11.022;2023-11-22T02:11:53;18.40;86.30
28837;DHT22;50669;50.982;11.022;2023-11-22T02:14:19;18.40;86.40
28837;DHT22;50669;50.982;11.022;2023-11-22T02:16:45;18.40;86.50
28837;DHT22;50669;50.982;11.022;2023-11-22T02:19:14;18.40;86.60
28837;DHT22;50669;50.982;11.022;2023-11-22T02:21:40;18.40;86.70
28837;DHT22;50669;50.982;11.022;2023-11-22T02:24:06;18.40;86.80
28837;DHT22;50669;50.982;11.022;2023-11-22T02:26:37;18.40;86.70
28837;DHT22;50669;50.982;11.022;2023-11-22T02:29:03;18.40;86.70
28837;DHT22;50669;50.982;11.022;2023-11-22T02:31:30;18.40;86.70
28837;DHT22;50669;50.982;11.022;2023-11-22T02:33:55;18.40;86.80
28837;DHT22;50669;50.982;11.022;2023-11-22T02:36:25;18.40;87.00
28837;DHT22;50669;50.982;11.022;2023-11-22T02:38:53;18.30;86.80
28837;DHT22;50669;50.982;11.022;2023-11-22T02:41:23;18.40;86.80
28837;DHT22;50669;50.982;11.022;2023-11-22T02:43:53;18.40;86.80
28837;DHT22;50669;50.982;11.022;2023-11-22T02:46:23;18.40;86.90
28837;DHT22;50669;50.982;11.022;2023-11-22T02:48:49;18.40;86.90
28837;DHT22;50669;50.982;11.022;2023-11-22T02:51:19;18.40;86.90
28837;DHT22;50669;50.982;11.022;2023-11-22T02:53:46;18.40;87.00
28837;DHT22;50669;50.982;11.022;2023-11-22T02:56:15;18.40;87.00
28837;DHT22;50669;50.982;11.022;2023-11-22T02:58:44;18.30;86.80
28837;DHT22;50669;50.982;11.022;2023-11-22T03:01:14;18.30;87.00
28837;DHT22;50669;50.982;11.022;2023-11-22T03:03:40;18.30;87.00
28837;DHT22;50669;50.982;11.022;2023-11-22T03:06:05;18.30;87.00
28837;DHT22;50669;50.982;11.022;2023-11-22T03:08:31;18.30;87.00
28837;DHT22;50669;50.982;11.022;2023-11-22T03:10:59;18.30;87.10
28837;DHT22;50669;50.982;11.022;2023-11-22T03:13:24;18.30;87.30
28837;DHT22;50669;50.982;11.022;2023-11-22T03:15:50;18.30;87.50
28837;DHT22;50669;50.982;11.022;2023-11-22T03:18:16;18.30;87.70
28837;DHT22;50669;50.982;11.022;2023-11-22T03:20:42;18.30;87.80
28837;DHT22;50669;50.982;11.022;2023-11-22T03:23:08;18.30;87.80
28837;DHT22;50669;50.982;11.022;2023-11-22T03:25:36;18.30;87.80
28837;DHT22;50669;50.982;11.022;2023-11-22T03:28:02;18.30;87.90
28837;DHT22;50669;50.982;11.022;2023-11-22T03:30:28;18.30;88.00
28837;DHT22;50669;50.982;11.022;2023-11-22T03:32:53;18.30;88.10
28837;DHT22;50669;50.982;11.022;2023-11-22T03:35:21;18.30;88.10
28837;DHT22;50669;50.982;11.022;2023-11-22T03:37:49;18.30;88.20
28837;DHT22;50669;50.982;11.022;2023-11-22T03:40:17;18.30;88.30
28837;DHT22;50669;50.982;11.022;2023-11-22T03:42:45;18.30;88.20
28837;DHT22;50669;50.982;11.022;2023-11-22T03:45:11;18.30;88.30
28837;DHT22;50669;50.982;11.022;2023-11-22T03:47:38;18.30;88.40
28837;DHT22;50669;50.982;11.022;2023-11-22T03:50:07;18.30;88.40
28837;DHT22;50669;50.982;11.022;2023-11-22T03:52:35;18.30;88.40
28837;DHT22;50669;50.982;11.022;2023-11-22T03:55:01;18.30;88.50
28837;DHT22;50669;50.982;11.022;2023-11-22T03:57:29;18.30;88.50
28837;DHT22;50669;50.982;11.022;2023-11-22T03:59:54;18.30;88.50
28837;DHT22;50669;50.982;11.022;2023-11-22T04:02:20;18.30;88.50
28837;DHT22;50669;50.982;11.022;2023-11-22T04:04:46;18.30;88.50
28837;DHT22;50669;50.982;11.022;2023-11-22T04:07:14;18.30;88.50
28837;DHT22;50669;50.982;11.022;2023-11-22T04:09:39;18.30;88.60
28837;DHT22;50669;50.982;11.022;2023-11-22T04:12:10;18.30;88.60
28837;DHT22;50669;50.982;11.022;2023-11-22T04:14:36;18.30;88.70
28837;DHT22;50669;50.982;11.022;2023-11-22T04:17:02;18.30;88.70
28837;DHT22;50669;50.982;11.022;2023-11-22T04:19:27;18.30;88.60
28837;DHT22;50669;50.982;11.022;2023-11-22T04:21:53;18.30;88.70
28837;DHT22;50669;50.982;11.022;2023-11-22T04:24:19;18.30;88.80
28837;DHT22;50669;50.982;11.022;2023-11-22T04:26:50;18.30;88.80
28837;DHT22;50669;50.982;11.022;2023-11-22T04:29:15;18.30;88.70
28837;DHT22;50669;50.982;11.022;2023-11-22T04:31:41;18.30;88.70
28837;DHT22;50669;50.982;11.022;2023-11-22T04:34:09;18.20;88.70
28837;DHT22;50669;50.982;11.022;2023-11-22T04:36:35;18.30;88.80
28837;DHT22;50669;50.982;11.022;2023-11-22T04:39:01;18.30;88.80
28837;DHT22;50669;50.982;11.022;2023-11-22T04:41:28;18.30;89.00
28837;DHT22;50669;50.982;11.022;2023-11-22T04:43:55;18.30;89.00
28837;DHT22;50669;50.982;11.022;2023-11-22T04:46:23;18.30;88.80
28837;DHT22;50669;50.982;11.022;2023-11-22T04:48:49;18.30;88.60
28837;DHT22;50669;50.982;11.022;2023-11-22T04:51:16;18.30;88.70
28837;DHT22;50669;50.982;11.022;2023-11-22T04:53:42;18.30;88.70
28837;DHT22;50669;50.982;11.022;2023-11-22T04:56:09;18.20;88.70
28837;DHT22;50669;50.982;11.022;2023-11-22T04:58:35;18.30;88.70
28837;DHT22;50669;50.982;11.022;2023-11-22T05:01:01;18.30;88.70
28837;DHT22;50669;50.982;11.022;2023-11-22T05:03:27;18.30;88.70
28837;DHT22;50669;50.982;11.022;2023-11-22T05:05:53;18.30;88.80
28837;DHT22;50669;50.982;11.022;2023-11-22T05:08:21;18.30;88.80
28837;DHT22;50669;50.982;11.022;2023-11-22T05:10:47;18.30;88.80
28837;DHT22;50669;50.982;11.022;2023-11-22T05:13:14;18.30;88.80
28837;DHT22;50669;50.982;11.022;2023-11-22T05:15:40;17.50;72.80
28837;DHT22;50669;50.982;11.022;2023-11-22T05:18:08;16.30;73.80
28837;DHT22;50669;50.982;11.022;2023-11-22T05:20:33;15.50;76.10
28837;DHT22;50669;50.982;11.022;2023-11-22T05:23:01;14.60;75.50
28837;DHT22;50669;50.982;11.022;2023-11-22T05:25:27;14.10;79.20
28837;DHT22;50669;50.982;11.022;2023-11-22T05:27:52;13.80;80.20
28837;DHT22;50669;50.982;11.022;2023-11-22T05:30:18;13.90;78.50
28837;DHT22;50669;50.982;11.022;2023-11-22T05:32:44;13.80;77.70
28837;DHT22;50669;50.982;11.022;2023-11-22T05:35:09;13.90;77.30
28837;DHT22;50669;50.982;11.022;2023-11-22T05:37:36;14.00;77.70
28837;DHT22;50669;50.982;11.022;2023-11-22T05:40:03;14.00;77.20
28837;DHT22;50669;50.982;11.022;2023-11-22T05:42:30;14.10;79.40
28837;DHT22;50669;50.982;11.022;2023-11-22T05:44:57;14.80;86.30
28837;DHT22;50669;50.982;11.022;2023-11-22T05:47:23;15.50;87.40
28837;DHT22;50669;50.982;11.022;2023-11-22T05:49:48;16.00;87.00
28837;DHT22;50669;50.982;11.022;2023-11-22T05:52:19;16.50;86.30
28837;DHT22;50669;50.982;11.022;2023-11-22T05:54:49;16.90;85.40
28837;DHT22;50669;50.982;11.022;2023-11-22T05:57:17;17.10;84.30
28837;DHT22;50669;50.982;11.022;2023-11-22T05:59:45;17.30;83.60
28837;DHT22;50669;50.982;11.022;2023-11-22T06:02:13;17.50;83.10
28837;DHT22;50669;50.982;11.022;2023-11-22T06:04:41;17.60;82.60
28837;DHT22;50669;50.982;11.022;2023-11-22T06:07:09;17.80;82.60
28837;DHT22;50669;50.982;11.022;2023-11-22T06:09:35;17.90;82.30
28837;DHT22;50669;50.982;11.022;2023-11-22T06:12:01;18.00;82.20
28837;DHT22;50669;50.982;11.022;2023-11-22T06:14:29;18.00;81.90
28837;DHT22;50669;50.982;11.022;2023-11-22T06:16:55;18.10;81.90
28837;DHT22;50669;50.982;11.022;2023-11-22T06:19:20;18.20;81.80
28837;DHT22;50669;50.982;11.022;2023-11-22T06:21:46;18.20;81.60
28837;DHT22;50669;50.982;11.022;2023-11-22T06:24:12;18.30;81.60
28837;DHT22;50669;50.982;11.022;2023-11-22T06:26:42;18.30;81.40
28837;DHT22;50669;50.982;11.022;2023-11-22T06:29:11;18.40;81.40
28837;DHT22;50669;50.982;11.022;2023-11-22T06:31:37;18.40;81.20
28837;DHT22;50669;50.982;11.022;2023-11-22T06:34:10;18.40;81.20
28837;DHT22;50669;50.982;11.022;2023-11-22T06:36:40;18.50;81.10
28837;DHT22;50669;50.982;11.022;2023-11-22T06:39:06;18.50;81.00
28837;DHT22;50669;50.982;11.022;2023-11-22T06:41:34;18.50;81.00
28837;DHT22;50669;50.982;11.022;2023-11-22T06:44:02;18.50;80.90
28837;DHT22;50669;50.982;11.022;2023-11-22T06:46:28;18.60;80.90
28837;DHT22;50669;50.982;11.022;2023-11-22T06:48:58;18.60;80.80
28837;DHT22;50669;50.982;11.022;2023-11-22T06:51:24;18.60;80.70
28837;DHT22;50669;50.982;11.022;2023-11-22T06:53:52;18.60;80.70
28837;DHT22;50669;50.982;11.022;2023-11-22T06:56:20;18.60;80.50
28837;DHT22;50669;50.982;11.022;2023-11-22T06:58:45;18.70;80.60
28837;DHT22;50669;50.982;11.022;2023-11-22T07:01:11;18.70;80.50
28837;DHT22;50669;50.982;11.022;2023-11-22T07:03:39;18.70;80.50
28837;DHT22;50669;50.982;11.022;2023-11-22T07:06:08;18.70;80.40
28837;DHT22;50669;50.982;11.022;2023-11-22T07:08:33;18.70;80.40
28837;DHT22;50669;50.982;11.022;2023-11-22T07:11:00;18.70;80.30
28837;DHT22;50669;50.982;11.022;2023-11-22T07:13:28;18.70;80.20
28837;DHT22;50669;50.982;11.022;2023-11-22T07:15:53;18.80;81.00
28837;DHT22;50669;50.982;11.022;2023-11-22T07:18:19;18.70;80.20
28837;DHT22;50669;50.982;11.022;2023-11-22T07:20:47;18.70;80.20
28837;DHT22;50669;50.982;11.022;2023-11-22T07:23:15;18.70;80.20
28837;DHT22;50669;50.982;11.022;2023-11-22T07:25:41;18.80;80.20
28837;DHT22;50669;50.982;11.022;2023-11-22T07:28:07;18.80;80.10
28837;DHT22;50669;50.982;11.022;2023-11-22T07:30:33;18.80;80.10
28837;DHT22;50669;50.982;11.022;2023-11-22T07:32:59;18.80;80.10
28837;DHT22;50669;50.982;11.022;2023-11-22T07:35:24;18.80;80.10
28837;DHT22;50669;50.982;11.022;2023-11-22T07:37:53;18.80;80.00
28837;DHT22;50669;50.982;11.022;2023-11-22T07:40:20;18.80;79.90
28837;DHT22;50669;50.982;11.022;2023-11-22T07:42:47;18.80;80.00
28837;DHT22;50669;50.982;11.022;2023-11-22T07:45:13;18.80;79.90
28837;DHT22;50669;50.982;11.022;2023-11-22T07:47:39;18.80;79.80
28837;DHT22;50669;50.982;11.022;2023-11-22T07:50:09;18.80;79.80
28837;DHT22;50669;50.982;11.022;2023-11-22T07:52:37;18.80;79.80
28837;DHT22;50669;50.982;11.022;2023-11-22T07:55:05;18.80;79.80
28837;DHT22;50669;50.982;11.022;2023-11-22T07:57:34;18.80;79.70
28837;DHT22;50669;50.982;11.022;2023-11-22T08:00:00;18.80;79.60
28837;DHT22;50669;50.982;11.022;2023-11-22T08:02:30;18.90;79.70
28837;DHT22;50669;50.982;11.022;2023-11-22T08:04:56;18.80;79.60
28837;DHT22;50669;50.982;11.022;2023-11-22T08:07:22;18.80;79.60
28837;DHT22;50669;50.982;11.022;2023-11-22T08:09:48;18.90;79.60
28837;DHT22;50669;50.982;11.022;2023-11-22T08:12:16;18.90;79.60
28837;DHT22;50669;50.982;11.022;2023-11-22T08:14:42;18.90;79.50
28837;DHT22;50669;50.982;11.022;2023-11-22T08:17:11;18.90;79.50
28837;DHT22;50669;50.982;11.022;2023-11-22T08:19:37;18.90;79.50
28837;DHT22;50669;50.982;11.022;2023-11-22T08:22:07;18.90;79.40
28837;DHT22;50669;50.982;11.022;2023-11-22T08:24:33;18.90;79.40
28837;DHT22;50669;50.982;11.022;2023-11-22T08:26:59;18.90;79.40
28837;DHT22;50669;50.982;11.022;2023-11-22T08:29:24;18.90;79.40
28837;DHT22;50669;50.982;11.022;2023-11-22T08:31:50;18.90;79.40
28837;DHT22;50669;50.982;11.022;2023-11-22T08:34:18;18.90;79.30
28837;DHT22;50669;50.982;11.022;2023-11-22T08:36:43;18.90;79.30
28837;DHT22;50669;50.982;11.022;2023-11-22T08:39:09;18.90;79.30
28837;DHT22;50669;50.982;11.022;2023-11-22T08:41:36;18.90;79.30
28837;DHT22;50669;50.982;11.022;2023-11-22T08:44:01;18.90;79.20
28837;DHT22;50669;50.982;11.022;2023-11-22T08:46:27;18.90;79.20
28837;DHT22;50669;50.982;11.022;2023-11-22T08:48:53;18.90;79.20
28837;DHT22;50669;50.982;11.022;2023-11-22T08:51:18;18.90;79.90
28837;DHT22;50669;50.982;11.022;2023-11-22T08:53:44;18.90;79.10
28837;DHT22;50669;50.982;11.022;2023-11-22T08:56:10;18.90;79.10
28837;DHT22;50669;50.982;11.022;2023-11-22T08:58:37;18.90;79.10
28837;DHT22;50669;50.982;11.022;2023-11-22T09:01:04;18.90;79.10
28837;DHT22;50669;50.982;11.022;2023-11-22T09:03:31;18.90;79.10
28837;DHT22;50669;50.982;11.022;2023-11-22T09:05:58;18.90;79.00
28837;DHT22;50669;50.982;11.022;2023-11-22T09:08:23;18.90;79.00
28837;DHT22;50669;50.982;11.022;2023-11-22T09:10:53;18.90;79.00
28837;DHT22;50669;50.982;11.022;2023-11-22T09:13:19;18.90;79.00
28837;DHT22;50669;50.982;11.022;2023-11-22T09:15:46;18.90;79.00
28837;DHT22;50669;50.982;11.022;2023-11-22T09:18:14;18.90;78.90
28837;DHT22;50669;50.982;11.022;2023-11-22T09:20:41;18.90;78.90
28837;DHT22;50669;50.982;11.022;2023-11-22T09:23:09;18.90;78.90
28837;DHT22;50669;50.982;11.022;2023-11-22T09:25:35;18.90;78.90
28837;DHT22;50669;50.982;11.022;2023-11-22T09:28:01;18.90;78.80
28837;DHT22;50669;50.982;11.022;2023-11-22T09:30:29;18.90;78.80
28837;DHT22;50669;50.982;11.022;2023-11-22T09:32:59;18.90;78.80
28837;DHT22;50669;50.982;11.022;2023-11-22T09:35:25;18.90;78.70
28837;DHT22;50669;50.982;11.022;2023-11-22T09:37:51;18.90;78.70
28837;DHT22;50669;50.982;11.022;2023-11-22T09:40:19;18.90;78.70
28837;DHT22;50669;50.982;11.022;2023-11-22T09:42:47;18.90;78.70
28837;DHT22;50669;50.982;11.022;2023-11-22T09:45:19;18.90;78.60
28837;DHT22;50669;50.982;11.022;2023-11-22T09:47:46;18.90;78.60
28837;DHT22;50669;50.982;11.022;2023-11-22T09:50:21;18.90;78.70
28837;DHT22;50669;50.982;11.022;2023-11-22T09:52:55;18.90;78.60
28837;DHT22;50669;50.982;11.022;2023-11-22T09:55:28;18.90;78.60
28837;DHT22;50669;50.982;11.022;2023-11-22T09:57:55;18.90;78.60
28837;DHT22;50669;50.982;11.022;2023-11-22T10:00:21;18.90;78.50
28837;DHT22;50669;50.982;11.022;2023-11-22T10:02:48;18.90;78.50
28837;DHT22;50669;50.982;11.022;2023-11-22T10:05:14;18.90;78.50
28837;DHT22;50669;50.982;11.022;2023-11-22T10:07:40;19.00;78.50
28837;DHT22;50669;50.982;11.022;2023-11-22T10:10:05;18.90;78.40
28837;DHT22;50669;50.982;11.022;2023-11-22T10:12:34;18.90;78.30
28837;DHT22;50669;50.982;11.022;2023-11-22T10:17:37;18.90;78.40
28837;DHT22;50669;50.982;11.022;2023-11-22T10:20:06;18.90;78.30
28837;DHT22;50669;50.982;11.022;2023-11-22T10:22:46;18.90;78.30
28837;DHT22;50669;50.982;11.022;2023-11-22T10:25:20;18.90;78.30
28837;DHT22;50669;50.982;11.022;2023-11-22T10:27:50;18.90;78.30
28837;DHT22;50669;50.982;11.022;2023-11-22T10:30:17;18.90;78.30
28837;DHT22;50669;50.982;11.022;2023-11-22T10:32:44;18.90;78.20
28837;DHT22;50669;50.982;11.022;2023-11-22T10:35:15;18.90;78.30
28837;DHT22;50669;50.982;11.022;2023-11-22T10:37:46;19.00;78.30
28837;DHT22;50669;50.982;11.022;2023-11-22T10:40:12;18.90;78.20
28837;DHT22;50669;50.982;11.022;2023-11-22T10:42:41;18.90;78.20
28837;DHT22;50669;50.982;11.022;2023-11-22T10:45:09;18.90;78.10
28837;DHT22;50669;50.982;11.022;2023-11-22T10:47:37;18.90;78.10
28837;DHT22;50669;50.982;11.022;2023-11-22T10:50:08;18.90;78.00
28837;DHT22;50669;50.982;11.022;2023-11-22T10:52:36;18.90;78.00
28837;DHT22;50669;50.982;11.022;2023-11-22T10:55:04;18.90;78.00
28837;DHT22;50669;50.982;11.022;2023-11-22T10:57:32;18.90;78.00
28837;DHT22;50669;50.982;11.022;2023-11-22T11:00:03;18.90;78.00
28837;DHT22;50669;50.982;11.022;2023-11-22T11:02:40;18.90;78.00
28837;DHT22;50669;50.982;11.022;2023-11-22T11:05:20;18.90;78.00
28837;DHT22;50669;50.982;11.022;2023-11-22T11:07:57;18.90;78.00
28837;DHT22;50669;50.982;11.022;2023-11-22T11:10:25;18.90;77.90
28837;DHT22;50669;50.982;11.022;2023-11-22T11:12:52;18.90;77.90
28837;DHT22;50669;50.982;11.022;2023-11-22T11:15:20;18.90;77.90
28837;DHT22;50669;50.982;11.022;2023-11-22T11:17:47;18.90;77.90
28837;DHT22;50669;50.982;11.022;2023-11-22T11:20:16;18.90;77.90
28837;DHT22;50669;50.982;11.022;2023-11-22T11:22:43;18.90;77.80
28837;DHT22;50669;50.982;11.022;2023-11-22T11:25:15;18.90;77.80
28837;DHT22;50669;50.982;11.022;2023-11-22T11:27:41;18.90;77.80
28837;DHT22;50669;50.982;11.022;2023-11-22T11:32:58;18.90;77.80
28837;DHT22;50669;50.982;11.022;2023-11-22T11:36:02;18.90;77.80
28837;DHT22;50669;50.982;11.022;2023-11-22T11:38:35;18.90;77.70
28837;DHT22;50669;50.982;11.022;2023-11-22T11:41:10;18.90;77.70
28837;DHT22;50669;50.982;11.022;2023-11-22T11:43:47;18.90;77.80
28837;DHT22;50669;50.982;11.022;2023-11-22T11:46:14;18.90;77.70
28837;DHT22;50669;50.982;11.022;2023-11-22T11:48:49;18.90;77.70
28837;DHT22;50669;50.982;11.022;2023-11-22T11:51:18;18.90;77.70
28837;DHT22;50669;50.982;11.022;2023-11-22T11:53:45;18.90;77.60
28837;DHT22;50669;50.982;11.022;2023-11-22T11:56:11;18.90;77.50
28837;DHT22;50669;50.982;11.022;2023-11-22T11:58:37;19.00;77.50
28837;DHT22;50669;50.982;11.022;2023-11-22T12:01:06;19.00;77.50
28837;DHT22;50669;50.982;11.022;2023-11-22T12:03:33;19.00;77.40
28837;DHT22;50669;50.982;11.022;2023-11-22T12:05:59;18.90;77.40
28837;DHT22;50669;50.982;11.022;2023-11-22T12:08:25;19.00;77.50
28837;DHT22;50669;50.982;11.022;2023-11-22T12:10:50;18.90;77.40
28837;DHT22;50669;50.982;11.022;2023-11-22T12:13:22;18.90;77.40
28837;DHT22;50669;50.982;11.022;2023-11-22T12:15:48;18.90;77.40
28837;DHT22;50669;50.982;11.022;2023-11-22T12:18:13;18.90;77.40
28837;DHT22;50669;50.982;11.022;2023-11-22T12:20:40;18.90;77.40
28837;DHT22;50669;50.982;11.022;2023-11-22T12:23:08;18.90;77.50
28837;DHT22;50669;50.982;11.022;2023-11-22T12:25:37;18.90;77.40
28837;DHT22;50669;50.982;11.022;2023-11-22T12:28:02;18.90;77.40
28837;DHT22;50669;50.982;11.022;2023-11-22T12:32:55;18.90;77.40
28837;DHT22;50669;50.982;11.022;2023-11-22T12:35:22;18.90;77.40
28837;DHT22;50669;50.982;11.022;2023-11-22T12:37:53;18.90;77.40
28837;DHT22;50669;50.982;11.022;2023-11-22T12:40:21;18.90;77.40
28837;DHT22;50669;50.982;11.022;2023-11-22T12:42:50;18.90;77.30
28837;DHT22;50669;50.982;11.022;2023-11-22T12:45:34;18.80;77.30
28837;DHT22;50669;50.982;11.022;2023-11-22T12:48:20;18.90;78.20
28837;DHT22;50669;50.982;11.022;2023-11-22T12:50:49;18.80;77.30
28837;DHT22;50669;50.982;11.022;2023-11-22T12:53:15;18.80;77.30
28837;DHT22;50669;50.982;11.022;2023-11-22T12:55:44;18.90;77.30
28837;DHT22;50669;50.982;11.022;2023-11-22T12:58:12;18.80;77.30
28837;DHT22;50669;50.982;11.022;2023-11-22T13:00:38;18.80;77.20
28837;DHT22;50669;50.982;11.022;2023-11-22T13:03:08;18.80;77.20
28837;DHT22;50669;50.982;11.022;2023-11-22T13:05:41;18.90;77.20
28837;DHT22;50669;50.982;11.022;2023-11-22T13:08:12;18.80;77.20
28837;DHT22;50669;50.982;11.022;2023-11-22T13:10:45;18.80;77.20
28837;DHT22;50669;50.982;11.022;2023-11-22T13:13:13;18.80;77.20
28837;DHT22;50669;50.982;11.022;2023-11-22T13:15:39;18.90;77.20
28837;DHT22;50669;50.982;11.022;2023-11-22T13:18:06;18.80;77.10
28837;DHT22;50669;50.982;11.022;2023-11-22T13:20:33;18.80;77.10
28837;DHT22;50669;50.982;11.022;2023-11-22T13:23:00;18.80;77.10
28837;DHT22;50669;50.982;11.022;2023-11-22T13:25:26;18.80;77.10
28837;DHT22;50669;50.982;11.022;2023-11-22T13:27:52;18.80;77.10
28837;DHT22;50669;50.982;11.022;2023-11-22T13:30:19;18.80;77.00
28837;DHT22;50669;50.982;11.022;2023-11-22T13:32:55;18.80;77.10
28837;DHT22;50669;50.982;11.022;2023-11-22T13:35:24;18.80;77.00
28837;DHT22;50669;50.982;11.022;2023-11-22T13:37:52;18.80;77.10
28837;DHT22;50669;50.982;11.022;2023-11-22T13:40:19;18.80;77.10
28837;DHT22;50669;50.982;11.022;2023-11-22T13:42:49;18.80;77.00
28837;DHT22;50669;50.982;11.022;2023-11-22T13:45:16;18.80;77.00
28837;DHT22;50669;50.982;11.022;2023-11-22T13:47:55;18.80;76.90
28837;DHT22;50669;50.982;11.022;2023-11-22T13:50:28;18.80;77.00
28837;DHT22;50669;50.982;11.022;2023-11-22T13:52:55;18.80;77.00
28837;DHT22;50669;50.982;11.022;2023-11-22T13:55:24;18.80;77.00
28837;DHT22;50669;50.982;11.022;2023-11-22T13:57:57;18.80;77.00
28837;DHT22;50669;50.982;11.022;2023-11-22T14:00:24;18.80;77.00
28837;DHT22;50669;50.982;11.022;2023-11-22T14:02:57;18.80;77.00
28837;DHT22;50669;50.982;11.022;2023-11-22T14:05:23;18.80;77.00
28837;DHT22;50669;50.982;11.022;2023-11-22T14:07:49;18.80;77.00
28837;DHT22;50669;50.982;11.022;2023-11-22T14:10:17;18.80;77.00
28837;DHT22;50669;50.982;11.022;2023-11-22T14:12:44;18.80;77.00
28837;DHT22;50669;50.982;11.022;2023-11-22T14:15:12;18.70;76.90
28837;DHT22;50669;50.982;11.022;2023-11-22T14:17:38;18.80;77.00
28837;DHT22;50669;50.982;11.022;2023-11-22T14:20:07;18.70;76.90
28837;DHT22;50669;50.982;11.022;2023-11-22T14:22:38;18.70;77.00
28837;DHT22;50669;50.982;11.022;2023-11-22T14:25:07;18.70;76.90
28837;DHT22;50669;50.982;11.022;2023-11-22T14:27:38;18.70;76.90
28837;DHT22;50669;50.982;11.022;2023-11-22T14:30:06;18.70;76.90
28837;DHT22;50669;50.982;11.022;2023-11-22T14:32:34;18.70;76.90
28837;DHT22;50669;50.982;11.022;2023-11-22T14:35:04;18.70;76.90
28837;DHT22;50669;50.982;11.022;2023-11-22T14:37:30;18.70;76.90
28837;DHT22;50669;50.982;11.022;2023-11-22T14:39:59;18.70;76.80
28837;DHT22;50669;50.982;11.022;2023-11-22T14:42:27;18.70;76.90
28837;DHT22;50669;50.982;11.022;2023-11-22T14:44:53;18.70;76.80
28837;DHT22;50669;50.982;11.022;2023-11-22T14:47:24;18.70;76.90
28837;DHT22;50669;50.982;11.022;2023-11-22T14:49:56;18.70;76.90
28837;DHT22;50669;50.982;11.022;2023-11-22T14:52:23;18.70;76.90
28837;DHT22;50669;50.982;11.022;2023-11-22T14:54:51;18.70;76.90
28837;DHT22;50669;50.982;11.022;2023-11-22T14:57:19;18.70;76.90
28837;DHT22;50669;50.982;11.022;2023-11-22T14:59:47;18.70;76.90
28837;DHT22;50669;50.982;11.022;2023-11-22T15:02:14;18.70;76.90
28837;DHT22;50669;50.982;11.022;2023-11-22T15:04:41;18.70;76.90
28837;DHT22;50669;50.982;11.022;2023-11-22T15:07:12;18.70;77.60
28837;DHT22;50669;50.982;11.022;2023-11-22T15:09:40;18.60;76.80
28837;DHT22;50669;50.982;11.022;2023-11-22T15:12:06;18.70;76.90
28837;DHT22;50669;50.982;11.022;2023-11-22T15:14:32;18.60;76.80
28837;DHT22;50669;50.982;11.022;2023-11-22T15:16:58;18.60;76.80
28837;DHT22;50669;50.982;11.022;2023-11-22T15:19:26;18.70;76.90
28837;DHT22;50669;50.982;11.022;2023-11-22T15:21:55;18.60;76.80
28837;DHT22;50669;50.982;11.022;2023-11-22T15:24:21;18.60;76.80
28837;DHT22;50669;50.982;11.022;2023-11-22T15:26:47;18.60;76.80